Billings, MT

5:19 PM MST on March 03, 2015 (GMT -0700)
Billings Logan International | Change Station
CLOSE
Current Station
Airport
Location: Billings,
Elevation: 3570 ft
Nearby Weather Stations

Elev 3570 ft 45.81 °N, 108.54 °W | Updated 26 minutes ago

Clear
Clear
18 °F
Feels Like 9 °F
N
7
Wind Variable Wind from WNW

Today
High -- | Low -- °F
--% Chance of Precip.
Yesterday
High -- | Low -- °F
Precip. -- in
6:49 AM 6:03 PM
Waxing Gibbous, 97% visible
Pressure 30.16 in
Visibility 10.0 miles
Clouds Few 6500 ft
Few 12000 ft
Windchill 9 °F
Dew Point -4 °F
Humidity 38%
Rainfall 0.07 in
Snow Depth Not available.
UV 1 out of 12
Pollen .30 out of 12
Air Quality Not available.
Flu Activity Not available.
METAR KBIL 032353Z 30006KT 10SM FEW065 FEW120 M08/M20 A2999 RMK AO2 SLP211 4/002 60000 T10781200 11067 21111 56010

More Conditions Fewer Conditions

Pressure 30.16 in
Visibility 10.0 miles
Clouds Few 6500 ft
Few 12000 ft
Windchill 9 °F
Dew Point -4 °F
Humidity 38%
Rainfall 0.07 in
Snow Depth Not available.
UV 1 out of 12
Pollen .30 out of 12
Air Quality Not available.
Flu Activity Not available.
METAR KBIL 032353Z 30006KT 10SM FEW065 FEW120 M08/M20 A2999 RMK AO2 SLP211 4/002 60000 T10781200 11067 21111 56010

More Conditions Fewer Conditions

10-Day Weather Forecast

Almanac

Astronomy

Mar. 03, 2015 Rise Set
Actual Time
Civil Twilight
Nautical Twilight
Astronomical Twilight
Moon
Length of Visible Light
Length of Day
Tomorrow will be .
, % of the Moon is Illuminated

Today's Extremes

State Highs State Lows

Community

WunderPhotos

Upload Photos

1,802,330 photos uploaded!

WunderBlogs® & News

Nearby

Air Quality

  Air Quality AQ Index Pollutant
Not available.

Snow Depth

Station Depth Elevation

Earthquake Activity

City Distance Mag. Time & Date
Minimum magnitude displayed is 2.5.

Coastal Water Temperatures

Place Temperature

Nearby Weather Stations